KSPF/SPF METAR and TAF weather

Enter ICAO airport designator
Station Type Date Time Source
KSPF METAR 2020/01/17 14:15 UTC NOAA

KSPF 171415Z AUTO 22028G36KT 10SM 09/M05 A2956 RMK AO2


Station Type Date Time Source
KSPF Decoded METAR 2020/01/17 14:15 UTC NOAA

Spearfish / Clyde Ice, SD, United States (KSPF) 44-29N 103-47W
Jan 17, 2020 - 09:15 AM EST / 2020.01.17 1415 UTC
Wind: from the SW (220 degrees) at 32 MPH (28 KT) gusting to 41 MPH (36 KT):0
Visibility: 10 mile(s):0
Temperature: 48 F (9 C)
Dew Point: 23 F (-5 C)
Relative Humidity: 36%
Pressure (altimeter): 29.56 in. Hg (1001 hPa)
ob: KSPF 171415Z AUTO 22028G36KT 10SM 09/M05 A2956 RMK AO2
cycle: 14

Station Type Date Time Source
KSPF TAF UTC NOAA

Error!

Example: see airport list